sensor_id;sensor_type;location;lat;lon;timestamp;P1;durP1;ratioP1;P2;durP2;ratioP2
45206;SDS011;30950;53.086;21.576;2023-09-19T00:00:38;18.60;;;14.65;;
45206;SDS011;30950;53.086;21.576;2023-09-19T00:03:29;22.55;;;15.50;;
45206;SDS011;30950;53.086;21.576;2023-09-19T00:05:58;18.90;;;15.52;;
45206;SDS011;30950;53.086;21.576;2023-09-19T00:08:27;18.55;;;13.80;;
45206;SDS011;30950;53.086;21.576;2023-09-19T00:10:54;20.17;;;16.48;;
45206;SDS011;30950;53.086;21.576;2023-09-19T00:13:21;18.02;;;15.55;;
45206;SDS011;30950;53.086;21.576;2023-09-19T00:15:50;18.63;;;15.55;;
45206;SDS011;30950;53.086;21.576;2023-09-19T00:18:18;20.15;;;14.20;;
45206;SDS011;30950;53.086;21.576;2023-09-19T00:20:58;17.45;;;14.55;;
45206;SDS011;30950;53.086;21.576;2023-09-19T00:23:26;18.10;;;15.73;;
45206;SDS011;30950;53.086;21.576;2023-09-19T00:25:54;15.80;;;13.63;;
45206;SDS011;30950;53.086;21.576;2023-09-19T00:28:28;16.98;;;13.90;;
45206;SDS011;30950;53.086;21.576;2023-09-19T00:30:56;20.73;;;14.60;;
45206;SDS011;30950;53.086;21.576;2023-09-19T00:33:28;16.98;;;13.85;;
45206;SDS011;30950;53.086;21.576;2023-09-19T00:35:58;20.13;;;14.75;;
45206;SDS011;30950;53.086;21.576;2023-09-19T00:38:26;17.33;;;14.38;;
45206;SDS011;30950;53.086;21.576;2023-09-19T00:40:54;16.75;;;14.95;;
45206;SDS011;30950;53.086;21.576;2023-09-19T00:43:26;18.83;;;14.10;;
45206;SDS011;30950;53.086;21.576;2023-09-19T00:45:55;18.15;;;14.45;;
45206;SDS011;30950;53.086;21.576;2023-09-19T00:48:24;18.75;;;15.30;;
45206;SDS011;30950;53.086;21.576;2023-09-19T00:50:54;19.90;;;14.60;;
45206;SDS011;30950;53.086;21.576;2023-09-19T00:53:24;17.92;;;15.60;;
45206;SDS011;30950;53.086;21.576;2023-09-19T00:55:54;19.90;;;15.55;;
45206;SDS011;30950;53.086;21.576;2023-09-19T00:58:23;17.73;;;14.60;;
45206;SDS011;30950;53.086;21.576;2023-09-19T01:00:50;17.60;;;14.90;;
45206;SDS011;30950;53.086;21.576;2023-09-19T01:03:20;16.95;;;14.32;;
45206;SDS011;30950;53.086;21.576;2023-09-19T01:05:48;16.65;;;13.75;;
45206;SDS011;30950;53.086;21.576;2023-09-19T01:08:18;17.58;;;14.82;;
45206;SDS011;30950;53.086;21.576;2023-09-19T01:10:52;17.58;;;14.57;;
45206;SDS011;30950;53.086;21.576;2023-09-19T01:13:54;18.42;;;15.15;;
45206;SDS011;30950;53.086;21.576;2023-09-19T01:16:41;17.55;;;14.63;;
45206;SDS011;30950;53.086;21.576;2023-09-19T01:19:23;18.50;;;15.45;;
45206;SDS011;30950;53.086;21.576;2023-09-19T01:25:07;18.37;;;15.13;;
45206;SDS011;30950;53.086;21.576;2023-09-19T01:30:35;18.90;;;14.70;;
45206;SDS011;30950;53.086;21.576;2023-09-19T01:33:10;17.45;;;14.32;;
45206;SDS011;30950;53.086;21.576;2023-09-19T01:35:38;18.45;;;14.25;;
45206;SDS011;30950;53.086;21.576;2023-09-19T01:38:06;17.25;;;14.27;;
45206;SDS011;30950;53.086;21.576;2023-09-19T01:40:41;18.02;;;14.38;;
45206;SDS011;30950;53.086;21.576;2023-09-19T01:45:46;16.77;;;14.63;;
45206;SDS011;30950;53.086;21.576;2023-09-19T01:48:43;20.58;;;15.57;;
45206;SDS011;30950;53.086;21.576;2023-09-19T01:51:20;18.10;;;14.55;;
45206;SDS011;30950;53.086;21.576;2023-09-19T01:54:06;17.20;;;14.30;;
45206;SDS011;30950;53.086;21.576;2023-09-19T01:56:40;21.35;;;15.20;;
45206;SDS011;30950;53.086;21.576;2023-09-19T01:59:17;19.25;;;14.88;;
45206;SDS011;30950;53.086;21.576;2023-09-19T02:01:51;16.95;;;13.90;;
45206;SDS011;30950;53.086;21.576;2023-09-19T02:04:20;17.83;;;13.73;;
45206;SDS011;30950;53.086;21.576;2023-09-19T02:06:47;15.98;;;14.23;;
45206;SDS011;30950;53.086;21.576;2023-09-19T02:09:15;16.90;;;15.10;;
45206;SDS011;30950;53.086;21.576;2023-09-19T02:11:42;17.13;;;14.85;;
45206;SDS011;30950;53.086;21.576;2023-09-19T02:14:10;16.98;;;13.98;;
45206;SDS011;30950;53.086;21.576;2023-09-19T02:16:37;19.13;;;14.88;;
45206;SDS011;30950;53.086;21.576;2023-09-19T02:19:05;18.08;;;14.25;;
45206;SDS011;30950;53.086;21.576;2023-09-19T02:21:33;18.52;;;14.13;;
45206;SDS011;30950;53.086;21.576;2023-09-19T02:24:00;16.88;;;14.07;;
45206;SDS011;30950;53.086;21.576;2023-09-19T02:26:27;17.52;;;14.95;;
45206;SDS011;30950;53.086;21.576;2023-09-19T02:28:55;17.95;;;15.65;;
45206;SDS011;30950;53.086;21.576;2023-09-19T02:31:22;18.08;;;15.15;;
45206;SDS011;30950;53.086;21.576;2023-09-19T02:33:49;15.48;;;13.65;;
45206;SDS011;30950;53.086;21.576;2023-09-19T02:36:17;19.67;;;15.20;;
45206;SDS011;30950;53.086;21.576;2023-09-19T02:38:44;17.73;;;13.85;;
45206;SDS011;30950;53.086;21.576;2023-09-19T02:41:12;19.70;;;14.00;;
45206;SDS011;30950;53.086;21.576;2023-09-19T02:43:39;18.80;;;15.50;;
45206;SDS011;30950;53.086;21.576;2023-09-19T02:46:07;19.25;;;15.38;;
45206;SDS011;30950;53.086;21.576;2023-09-19T02:48:34;18.88;;;14.93;;
45206;SDS011;30950;53.086;21.576;2023-09-19T02:51:02;25.63;;;19.85;;
45206;SDS011;30950;53.086;21.576;2023-09-19T02:53:30;16.90;;;13.27;;
45206;SDS011;30950;53.086;21.576;2023-09-19T02:55:58;19.45;;;15.25;;
45206;SDS011;30950;53.086;21.576;2023-09-19T02:58:26;17.40;;;13.85;;
45206;SDS011;30950;53.086;21.576;2023-09-19T03:00:54;17.98;;;15.15;;
45206;SDS011;30950;53.086;21.576;2023-09-19T03:03:23;16.60;;;14.85;;
45206;SDS011;30950;53.086;21.576;2023-09-19T03:05:50;16.95;;;15.07;;
45206;SDS011;30950;53.086;21.576;2023-09-19T03:08:21;16.25;;;14.55;;
45206;SDS011;30950;53.086;21.576;2023-09-19T03:10:50;19.20;;;14.45;;
45206;SDS011;30950;53.086;21.576;2023-09-19T03:13:17;18.23;;;14.60;;
45206;SDS011;30950;53.086;21.576;2023-09-19T03:15:45;17.80;;;15.13;;
45206;SDS011;30950;53.086;21.576;2023-09-19T03:18:22;18.55;;;15.38;;
45206;SDS011;30950;53.086;21.576;2023-09-19T03:20:53;18.13;;;15.00;;
45206;SDS011;30950;53.086;21.576;2023-09-19T03:23:28;17.98;;;14.25;;
45206;SDS011;30950;53.086;21.576;2023-09-19T03:25:56;18.38;;;15.15;;
45206;SDS011;30950;53.086;21.576;2023-09-19T03:28:24;19.25;;;14.75;;
45206;SDS011;30950;53.086;21.576;2023-09-19T03:31:01;17.10;;;15.13;;
45206;SDS011;30950;53.086;21.576;2023-09-19T03:33:32;18.40;;;14.80;;
45206;SDS011;30950;53.086;21.576;2023-09-19T03:36:01;20.58;;;15.60;;
45206;SDS011;30950;53.086;21.576;2023-09-19T03:38:33;17.00;;;15.23;;
45206;SDS011;30950;53.086;21.576;2023-09-19T03:41:01;19.52;;;15.27;;
45206;SDS011;30950;53.086;21.576;2023-09-19T03:43:31;17.80;;;15.50;;
45206;SDS011;30950;53.086;21.576;2023-09-19T03:46:02;18.83;;;14.32;;
45206;SDS011;30950;53.086;21.576;2023-09-19T03:48:33;17.23;;;15.43;;
45206;SDS011;30950;53.086;21.576;2023-09-19T03:51:02;18.15;;;14.93;;
45206;SDS011;30950;53.086;21.576;2023-09-19T03:53:29;19.92;;;15.90;;
45206;SDS011;30950;53.086;21.576;2023-09-19T03:55:57;16.60;;;14.32;;
45206;SDS011;30950;53.086;21.576;2023-09-19T03:58:24;22.25;;;16.38;;
45206;SDS011;30950;53.086;21.576;2023-09-19T04:00:55;16.67;;;14.23;;
45206;SDS011;30950;53.086;21.576;2023-09-19T04:03:24;22.58;;;14.70;;
45206;SDS011;30950;53.086;21.576;2023-09-19T04:06:01;21.80;;;14.77;;
45206;SDS011;30950;53.086;21.576;2023-09-19T04:08:29;18.15;;;16.00;;
45206;SDS011;30950;53.086;21.576;2023-09-19T04:10:56;20.88;;;16.30;;
45206;SDS011;30950;53.086;21.576;2023-09-19T04:13:25;17.88;;;15.80;;
45206;SDS011;30950;53.086;21.576;2023-09-19T04:15:53;17.08;;;14.68;;
45206;SDS011;30950;53.086;21.576;2023-09-19T04:18:20;19.33;;;15.93;;
45206;SDS011;30950;53.086;21.576;2023-09-19T04:20:50;23.08;;;15.20;;
45206;SDS011;30950;53.086;21.576;2023-09-19T04:23:18;18.15;;;14.75;;
45206;SDS011;30950;53.086;21.576;2023-09-19T04:25:48;19.80;;;16.15;;
45206;SDS011;30950;53.086;21.576;2023-09-19T04:28:16;22.30;;;16.40;;
45206;SDS011;30950;53.086;21.576;2023-09-19T04:30:43;19.75;;;15.52;;
45206;SDS011;30950;53.086;21.576;2023-09-19T04:33:11;18.83;;;15.63;;
45206;SDS011;30950;53.086;21.576;2023-09-19T04:35:41;19.85;;;16.73;;
45206;SDS011;30950;53.086;21.576;2023-09-19T04:38:12;17.75;;;15.60;;
45206;SDS011;30950;53.086;21.576;2023-09-19T04:40:40;20.92;;;16.50;;
45206;SDS011;30950;53.086;21.576;2023-09-19T04:43:08;25.20;;;17.05;;
45206;SDS011;30950;53.086;21.576;2023-09-19T04:45:35;21.85;;;16.05;;
45206;SDS011;30950;53.086;21.576;2023-09-19T04:48:05;21.13;;;16.27;;
45206;SDS011;30950;53.086;21.576;2023-09-19T04:50:35;19.58;;;15.88;;
45206;SDS011;30950;53.086;21.576;2023-09-19T04:53:04;16.90;;;14.40;;
45206;SDS011;30950;53.086;21.576;2023-09-19T04:55:32;20.13;;;15.95;;
45206;SDS011;30950;53.086;21.576;2023-09-19T04:58:00;23.83;;;15.52;;
45206;SDS011;30950;53.086;21.576;2023-09-19T05:00:27;20.33;;;16.33;;
45206;SDS011;30950;53.086;21.576;2023-09-19T05:02:57;18.50;;;16.00;;
45206;SDS011;30950;53.086;21.576;2023-09-19T05:05:25;19.65;;;15.70;;
45206;SDS011;30950;53.086;21.576;2023-09-19T05:07:53;21.17;;;16.75;;
45206;SDS011;30950;53.086;21.576;2023-09-19T05:10:21;26.10;;;18.08;;
45206;SDS011;30950;53.086;21.576;2023-09-19T05:12:49;20.88;;;15.93;;
45206;SDS011;30950;53.086;21.576;2023-09-19T05:15:20;21.65;;;18.00;;
45206;SDS011;30950;53.086;21.576;2023-09-19T05:17:48;21.88;;;17.50;;
45206;SDS011;30950;53.086;21.576;2023-09-19T05:20:23;19.48;;;15.80;;
45206;SDS011;30950;53.086;21.576;2023-09-19T05:23:03;16.90;;;15.10;;
45206;SDS011;30950;53.086;21.576;2023-09-19T05:25:40;18.40;;;15.23;;
45206;SDS011;30950;53.086;21.576;2023-09-19T05:28:08;19.48;;;14.90;;
45206;SDS011;30950;53.086;21.576;2023-09-19T05:30:39;22.02;;;18.70;;
45206;SDS011;30950;53.086;21.576;2023-09-19T05:33:07;17.85;;;15.60;;
45206;SDS011;30950;53.086;21.576;2023-09-19T05:35:34;18.10;;;15.20;;
45206;SDS011;30950;53.086;21.576;2023-09-19T05:38:07;20.13;;;15.02;;
45206;SDS011;30950;53.086;21.576;2023-09-19T05:40:35;19.42;;;15.98;;
45206;SDS011;30950;53.086;21.576;2023-09-19T05:43:05;18.92;;;15.88;;
45206;SDS011;30950;53.086;21.576;2023-09-19T05:45:32;16.95;;;14.43;;
45206;SDS011;30950;53.086;21.576;2023-09-19T05:48:07;22.75;;;20.35;;
45206;SDS011;30950;53.086;21.576;2023-09-19T05:50:36;21.15;;;16.42;;
45206;SDS011;30950;53.086;21.576;2023-09-19T05:53:04;18.38;;;15.20;;
45206;SDS011;30950;53.086;21.576;2023-09-19T05:55:32;17.70;;;15.30;;
45206;SDS011;30950;53.086;21.576;2023-09-19T05:58:00;20.83;;;15.45;;
45206;SDS011;30950;53.086;21.576;2023-09-19T06:00:27;18.58;;;15.88;;
45206;SDS011;30950;53.086;21.576;2023-09-19T06:02:56;19.13;;;14.23;;
45206;SDS011;30950;53.086;21.576;2023-09-19T06:05:25;17.50;;;14.90;;
45206;SDS011;30950;53.086;21.576;2023-09-19T06:07:54;16.20;;;13.32;;
45206;SDS011;30950;53.086;21.576;2023-09-19T06:10:21;14.90;;;13.35;;
45206;SDS011;30950;53.086;21.576;2023-09-19T06:12:50;19.13;;;14.38;;
45206;SDS011;30950;53.086;21.576;2023-09-19T06:15:17;17.88;;;15.25;;
45206;SDS011;30950;53.086;21.576;2023-09-19T06:17:50;18.10;;;14.98;;
45206;SDS011;30950;53.086;21.576;2023-09-19T06:20:26;17.55;;;13.75;;
45206;SDS011;30950;53.086;21.576;2023-09-19T06:22:53;13.75;;;12.23;;
45206;SDS011;30950;53.086;21.576;2023-09-19T06:25:22;15.90;;;14.18;;
45206;SDS011;30950;53.086;21.576;2023-09-19T06:27:53;15.57;;;13.65;;
45206;SDS011;30950;53.086;21.576;2023-09-19T06:30:21;12.35;;;11.05;;
45206;SDS011;30950;53.086;21.576;2023-09-19T06:32:56;20.13;;;14.15;;
45206;SDS011;30950;53.086;21.576;2023-09-19T06:35:25;19.73;;;17.58;;
45206;SDS011;30950;53.086;21.576;2023-09-19T06:37:53;16.08;;;13.60;;
45206;SDS011;30950;53.086;21.576;2023-09-19T06:40:21;14.48;;;12.88;;
45206;SDS011;30950;53.086;21.576;2023-09-19T06:42:51;15.25;;;12.98;;
45206;SDS011;30950;53.086;21.576;2023-09-19T06:45:23;17.45;;;13.82;;
45206;SDS011;30950;53.086;21.576;2023-09-19T06:47:54;15.95;;;12.75;;
45206;SDS011;30950;53.086;21.576;2023-09-19T06:50:25;13.00;;;11.60;;
45206;SDS011;30950;53.086;21.576;2023-09-19T06:52:54;17.27;;;13.70;;
45206;SDS011;30950;53.086;21.576;2023-09-19T06:55:25;17.30;;;13.00;;
45206;SDS011;30950;53.086;21.576;2023-09-19T06:57:55;17.33;;;12.85;;
45206;SDS011;30950;53.086;21.576;2023-09-19T07:00:23;15.60;;;13.40;;
45206;SDS011;30950;53.086;21.576;2023-09-19T07:03:04;15.60;;;13.27;;
45206;SDS011;30950;53.086;21.576;2023-09-19T07:05:38;12.97;;;11.57;;
45206;SDS011;30950;53.086;21.576;2023-09-19T07:08:07;14.52;;;12.13;;
45206;SDS011;30950;53.086;21.576;2023-09-19T07:10:37;15.98;;;13.43;;
45206;SDS011;30950;53.086;21.576;2023-09-19T07:13:16;15.77;;;12.32;;
45206;SDS011;30950;53.086;21.576;2023-09-19T07:15:44;14.82;;;12.52;;
45206;SDS011;30950;53.086;21.576;2023-09-19T07:18:17;12.50;;;11.07;;
45206;SDS011;30950;53.086;21.576;2023-09-19T07:20:45;12.93;;;11.63;;
45206;SDS011;30950;53.086;21.576;2023-09-19T07:23:17;14.23;;;12.75;;
45206;SDS011;30950;53.086;21.576;2023-09-19T07:25:49;17.30;;;12.50;;
45206;SDS011;30950;53.086;21.576;2023-09-19T07:28:17;18.35;;;13.57;;
45206;SDS011;30950;53.086;21.576;2023-09-19T07:30:45;12.95;;;10.50;;
45206;SDS011;30950;53.086;21.576;2023-09-19T07:33:12;18.17;;;12.23;;
45206;SDS011;30950;53.086;21.576;2023-09-19T07:35:40;18.38;;;13.00;;
45206;SDS011;30950;53.086;21.576;2023-09-19T07:38:12;18.23;;;13.52;;
45206;SDS011;30950;53.086;21.576;2023-09-19T07:40:40;16.80;;;13.90;;
45206;SDS011;30950;53.086;21.576;2023-09-19T07:43:07;17.48;;;12.95;;
45206;SDS011;30950;53.086;21.576;2023-09-19T07:45:35;13.95;;;12.55;;
45206;SDS011;30950;53.086;21.576;2023-09-19T07:48:03;15.88;;;11.23;;
45206;SDS011;30950;53.086;21.576;2023-09-19T07:50:33;16.88;;;13.20;;
45206;SDS011;30950;53.086;21.576;2023-09-19T07:53:03;16.30;;;13.20;;
45206;SDS011;30950;53.086;21.576;2023-09-19T07:55:32;15.23;;;13.23;;
45206;SDS011;30950;53.086;21.576;2023-09-19T07:58:01;20.35;;;13.95;;
45206;SDS011;30950;53.086;21.576;2023-09-19T08:00:30;14.85;;;12.43;;
45206;SDS011;30950;53.086;21.576;2023-09-19T08:03:01;15.00;;;12.13;;
45206;SDS011;30950;53.086;21.576;2023-09-19T08:05:43;14.90;;;12.32;;
45206;SDS011;30950;53.086;21.576;2023-09-19T08:08:12;17.15;;;14.60;;
45206;SDS011;30950;53.086;21.576;2023-09-19T08:10:42;16.80;;;13.75;;
45206;SDS011;30950;53.086;21.576;2023-09-19T08:13:13;13.93;;;12.10;;
45206;SDS011;30950;53.086;21.576;2023-09-19T08:15:44;16.35;;;12.65;;
45206;SDS011;30950;53.086;21.576;2023-09-19T08:18:13;15.07;;;12.85;;
45206;SDS011;30950;53.086;21.576;2023-09-19T08:20:41;16.65;;;14.73;;
45206;SDS011;30950;53.086;21.576;2023-09-19T08:23:13;16.48;;;14.77;;
45206;SDS011;30950;53.086;21.576;2023-09-19T08:25:40;16.65;;;14.93;;
45206;SDS011;30950;53.086;21.576;2023-09-19T08:28:08;18.30;;;14.50;;
45206;SDS011;30950;53.086;21.576;2023-09-19T08:30:38;19.80;;;14.85;;
45206;SDS011;30950;53.086;21.576;2023-09-19T08:33:07;16.98;;;14.70;;
45206;SDS011;30950;53.086;21.576;2023-09-19T08:35:35;17.50;;;15.52;;
45206;SDS011;30950;53.086;21.576;2023-09-19T08:38:03;17.90;;;14.95;;
45206;SDS011;30950;53.086;21.576;2023-09-19T08:40:31;15.40;;;13.75;;
45206;SDS011;30950;53.086;21.576;2023-09-19T08:43:00;19.17;;;15.63;;
45206;SDS011;30950;53.086;21.576;2023-09-19T08:45:28;18.02;;;16.10;;
45206;SDS011;30950;53.086;21.576;2023-09-19T08:50:43;19.48;;;15.48;;
45206;SDS011;30950;53.086;21.576;2023-09-19T08:53:21;18.35;;;14.00;;
45206;SDS011;30950;53.086;21.576;2023-09-19T08:55:59;15.88;;;13.63;;
45206;SDS011;30950;53.086;21.576;2023-09-19T08:58:31;16.52;;;13.77;;
45206;SDS011;30950;53.086;21.576;2023-09-19T09:01:07;19.17;;;16.70;;
45206;SDS011;30950;53.086;21.576;2023-09-19T09:03:37;17.40;;;14.25;;
45206;SDS011;30950;53.086;21.576;2023-09-19T09:06:14;16.27;;;14.57;;
45206;SDS011;30950;53.086;21.576;2023-09-19T09:08:47;19.73;;;15.80;;
45206;SDS011;30950;53.086;21.576;2023-09-19T09:11:14;18.30;;;16.40;;
45206;SDS011;30950;53.086;21.576;2023-09-19T09:13:44;21.48;;;16.13;;
45206;SDS011;30950;53.086;21.576;2023-09-19T09:16:13;17.95;;;15.93;;
45206;SDS011;30950;53.086;21.576;2023-09-19T09:18:46;18.70;;;16.13;;
45206;SDS011;30950;53.086;21.576;2023-09-19T09:21:20;18.60;;;16.50;;
45206;SDS011;30950;53.086;21.576;2023-09-19T09:23:49;24.50;;;17.02;;
45206;SDS011;30950;53.086;21.576;2023-09-19T09:26:40;20.33;;;18.10;;
45206;SDS011;30950;53.086;21.576;2023-09-19T09:29:12;21.90;;;19.52;;
45206;SDS011;30950;53.086;21.576;2023-09-19T09:31:45;25.17;;;20.35;;
45206;SDS011;30950;53.086;21.576;2023-09-19T09:34:12;26.17;;;21.90;;
45206;SDS011;30950;53.086;21.576;2023-09-19T09:36:40;27.38;;;23.67;;
45206;SDS011;30950;53.086;21.576;2023-09-19T09:39:08;31.88;;;26.75;;
45206;SDS011;30950;53.086;21.576;2023-09-19T09:41:53;28.30;;;25.00;;
45206;SDS011;30950;53.086;21.576;2023-09-19T09:44:22;28.33;;;25.20;;
45206;SDS011;30950;53.086;21.576;2023-09-19T09:46:50;27.00;;;24.08;;
45206;SDS011;30950;53.086;21.576;2023-09-19T09:49:22;31.40;;;27.92;;
45206;SDS011;30950;53.086;21.576;2023-09-19T09:52:04;35.97;;;27.45;;
45206;SDS011;30950;53.086;21.576;2023-09-19T09:55:00;29.85;;;25.50;;
45206;SDS011;30950;53.086;21.576;2023-09-19T09:57:33;34.80;;;28.27;;
45206;SDS011;30950;53.086;21.576;2023-09-19T10:00:02;33.72;;;26.55;;
45206;SDS011;30950;53.086;21.576;2023-09-19T10:02:39;30.45;;;27.17;;
45206;SDS011;30950;53.086;21.576;2023-09-19T10:05:18;36.90;;;30.95;;
45206;SDS011;30950;53.086;21.576;2023-09-19T10:07:47;38.30;;;31.17;;
45206;SDS011;30950;53.086;21.576;2023-09-19T10:10:33;37.80;;;31.95;;
45206;SDS011;30950;53.086;21.576;2023-09-19T10:13:11;34.65;;;30.27;;
45206;SDS011;30950;53.086;21.576;2023-09-19T10:15:42;35.20;;;29.95;;
45206;SDS011;30950;53.086;21.576;2023-09-19T10:18:21;40.97;;;36.45;;
45206;SDS011;30950;53.086;21.576;2023-09-19T10:20:50;40.63;;;36.25;;
45206;SDS011;30950;53.086;21.576;2023-09-19T10:23:18;46.35;;;38.08;;
45206;SDS011;30950;53.086;21.576;2023-09-19T10:25:51;42.80;;;37.90;;
45206;SDS011;30950;53.086;21.576;2023-09-19T10:28:20;46.88;;;37.85;;
45206;SDS011;30950;53.086;21.576;2023-09-19T10:30:52;41.78;;;35.47;;
45206;SDS011;30950;53.086;21.576;2023-09-19T10:33:21;43.63;;;38.65;;
45206;SDS011;30950;53.086;21.576;2023-09-19T10:35:52;41.53;;;37.10;;
45206;SDS011;30950;53.086;21.576;2023-09-19T10:38:23;38.10;;;33.67;;
45206;SDS011;30950;53.086;21.576;2023-09-19T10:40:52;44.05;;;39.25;;
45206;SDS011;30950;53.086;21.576;2023-09-19T10:43:22;44.75;;;36.78;;
45206;SDS011;30950;53.086;21.576;2023-09-19T10:45:53;43.17;;;36.92;;
45206;SDS011;30950;53.086;21.576;2023-09-19T10:48:23;44.58;;;39.63;;
45206;SDS011;30950;53.086;21.576;2023-09-19T10:51:08;41.75;;;35.95;;
45206;SDS011;30950;53.086;21.576;2023-09-19T10:56:26;40.22;;;35.90;;
45206;SDS011;30950;53.086;21.576;2023-09-19T11:01:49;39.13;;;34.22;;
45206;SDS011;30950;53.086;21.576;2023-09-19T11:04:32;38.27;;;34.27;;
45206;SDS011;30950;53.086;21.576;2023-09-19T11:09:55;34.95;;;30.90;;
45206;SDS011;30950;53.086;21.576;2023-09-19T11:15:04;30.92;;;25.98;;
45206;SDS011;30950;53.086;21.576;2023-09-19T11:17:35;29.55;;;26.38;;
45206;SDS011;30950;53.086;21.576;2023-09-19T11:30:38;24.23;;;20.35;;
45206;SDS011;30950;53.086;21.576;2023-09-19T11:43:50;29.60;;;23.30;;
45206;SDS011;30950;53.086;21.576;2023-09-19T11:46:22;30.63;;;27.52;;
45206;SDS011;30950;53.086;21.576;2023-09-19T11:48:51;37.53;;;31.70;;
45206;SDS011;30950;53.086;21.576;2023-09-19T11:51:19;22.40;;;18.67;;
45206;SDS011;30950;53.086;21.576;2023-09-19T11:53:58;21.45;;;17.60;;
45206;SDS011;30950;53.086;21.576;2023-09-19T11:56:30;20.38;;;18.17;;
45206;SDS011;30950;53.086;21.576;2023-09-19T11:58:58;21.10;;;17.13;;
45206;SDS011;30950;53.086;21.576;2023-09-19T12:01:31;19.20;;;16.52;;
45206;SDS011;30950;53.086;21.576;2023-09-19T12:04:02;20.52;;;17.02;;
45206;SDS011;30950;53.086;21.576;2023-09-19T12:06:31;18.58;;;16.35;;
45206;SDS011;30950;53.086;21.576;2023-09-19T12:08:59;19.83;;;17.05;;
45206;SDS011;30950;53.086;21.576;2023-09-19T12:11:29;17.15;;;15.35;;
45206;SDS011;30950;53.086;21.576;2023-09-19T12:14:01;18.95;;;13.68;;
45206;SDS011;30950;53.086;21.576;2023-09-19T12:16:31;15.55;;;12.35;;
45206;SDS011;30950;53.086;21.576;2023-09-19T12:19:17;38.08;;;34.22;;
45206;SDS011;30950;53.086;21.576;2023-09-19T12:21:57;15.88;;;13.88;;
45206;SDS011;30950;53.086;21.576;2023-09-19T12:24:27;14.05;;;12.35;;
45206;SDS011;30950;53.086;21.576;2023-09-19T12:27:00;14.48;;;11.95;;
45206;SDS011;30950;53.086;21.576;2023-09-19T12:29:43;18.50;;;12.85;;
45206;SDS011;30950;53.086;21.576;2023-09-19T12:32:16;12.50;;;11.20;;
45206;SDS011;30950;53.086;21.576;2023-09-19T12:34:50;15.70;;;12.00;;
45206;SDS011;30950;53.086;21.576;2023-09-19T12:37:20;14.65;;;12.95;;
45206;SDS011;30950;53.086;21.576;2023-09-19T12:39:50;15.77;;;13.10;;
45206;SDS011;30950;53.086;21.576;2023-09-19T12:42:21;13.48;;;12.18;;
45206;SDS011;30950;53.086;21.576;2023-09-19T12:44:51;13.35;;;12.05;;
45206;SDS011;30950;53.086;21.576;2023-09-19T12:47:23;14.07;;;12.65;;
45206;SDS011;30950;53.086;21.576;2023-09-19T12:50:05;14.90;;;12.82;;
45206;SDS011;30950;53.086;21.576;2023-09-19T12:52:43;14.40;;;12.35;;
45206;SDS011;30950;53.086;21.576;2023-09-19T12:55:22;16.55;;;14.43;;
45206;SDS011;30950;53.086;21.576;2023-09-19T12:58:07;16.27;;;14.68;;
45206;SDS011;30950;53.086;21.576;2023-09-19T13:00:42;19.17;;;16.95;;
45206;SDS011;30950;53.086;21.576;2023-09-19T13:08:28;17.90;;;15.98;;
45206;SDS011;30950;53.086;21.576;2023-09-19T13:11:12;18.05;;;16.10;;
45206;SDS011;30950;53.086;21.576;2023-09-19T13:13:43;16.67;;;14.98;;
45206;SDS011;30950;53.086;21.576;2023-09-19T13:16:21;15.73;;;14.10;;
45206;SDS011;30950;53.086;21.576;2023-09-19T13:18:52;18.10;;;16.30;;
45206;SDS011;30950;53.086;21.576;2023-09-19T13:21:28;17.52;;;15.68;;
45206;SDS011;30950;53.086;21.576;2023-09-19T13:26:47;20.15;;;18.15;;
45206;SDS011;30950;53.086;21.576;2023-09-19T13:29:15;20.13;;;18.05;;
45206;SDS011;30950;53.086;21.576;2023-09-19T13:31:46;21.50;;;17.15;;
45206;SDS011;30950;53.086;21.576;2023-09-19T13:34:14;18.70;;;16.63;;
45206;SDS011;30950;53.086;21.576;2023-09-19T13:36:45;19.65;;;17.42;;
45206;SDS011;30950;53.086;21.576;2023-09-19T13:39:16;19.45;;;17.60;;
45206;SDS011;30950;53.086;21.576;2023-09-19T13:41:45;21.02;;;18.95;;
45206;SDS011;30950;53.086;21.576;2023-09-19T13:44:14;20.75;;;18.20;;
45206;SDS011;30950;53.086;21.576;2023-09-19T13:46:43;20.85;;;18.30;;
45206;SDS011;30950;53.086;21.576;2023-09-19T13:49:13;20.25;;;18.15;;
45206;SDS011;30950;53.086;21.576;2023-09-19T13:51:41;20.75;;;18.75;;
45206;SDS011;30950;53.086;21.576;2023-09-19T13:54:11;19.50;;;17.50;;
45206;SDS011;30950;53.086;21.576;2023-09-19T13:56:39;21.10;;;17.92;;
45206;SDS011;30950;53.086;21.576;2023-09-19T13:59:07;19.23;;;17.23;;
45206;SDS011;30950;53.086;21.576;2023-09-19T14:01:35;22.92;;;18.77;;
45206;SDS011;30950;53.086;21.576;2023-09-19T14:04:03;21.10;;;18.00;;
45206;SDS011;30950;53.086;21.576;2023-09-19T14:06:30;19.85;;;17.73;;
45206;SDS011;30950;53.086;21.576;2023-09-19T14:08:58;18.27;;;16.48;;
45206;SDS011;30950;53.086;21.576;2023-09-19T14:11:25;17.73;;;15.07;;
45206;SDS011;30950;53.086;21.576;2023-09-19T14:13:53;21.83;;;18.10;;
45206;SDS011;30950;53.086;21.576;2023-09-19T14:16:23;17.98;;;16.25;;
45206;SDS011;30950;53.086;21.576;2023-09-19T14:18:51;25.13;;;17.33;;
45206;SDS011;30950;53.086;21.576;2023-09-19T14:21:19;19.27;;;16.48;;
45206;SDS011;30950;53.086;21.576;2023-09-19T14:23:47;19.75;;;16.40;;
45206;SDS011;30950;53.086;21.576;2023-09-19T14:26:16;19.02;;;17.05;;
45206;SDS011;30950;53.086;21.576;2023-09-19T14:28:43;18.75;;;16.85;;
45206;SDS011;30950;53.086;21.576;2023-09-19T14:31:12;19.00;;;17.20;;
45206;SDS011;30950;53.086;21.576;2023-09-19T14:33:39;18.50;;;15.90;;
45206;SDS011;30950;53.086;21.576;2023-09-19T14:36:08;19.60;;;16.67;;
45206;SDS011;30950;53.086;21.576;2023-09-19T14:38:37;17.08;;;15.32;;
45206;SDS011;30950;53.086;21.576;2023-09-19T14:41:06;19.65;;;17.08;;
45206;SDS011;30950;53.086;21.576;2023-09-19T14:43:33;30.40;;;27.15;;
45206;SDS011;30950;53.086;21.576;2023-09-19T14:46:08;28.63;;;25.73;;
45206;SDS011;30950;53.086;21.576;2023-09-19T14:48:36;16.52;;;14.77;;
45206;SDS011;30950;53.086;21.576;2023-09-19T14:51:05;17.42;;;15.73;;
45206;SDS011;30950;53.086;21.576;2023-09-19T14:53:36;19.38;;;15.65;;
45206;SDS011;30950;53.086;21.576;2023-09-19T14:56:07;14.95;;;12.88;;
45206;SDS011;30950;53.086;21.576;2023-09-19T14:58:36;16.55;;;14.90;;
45206;SDS011;30950;53.086;21.576;2023-09-19T15:01:06;18.77;;;15.20;;
45206;SDS011;30950;53.086;21.576;2023-09-19T15:03:39;18.58;;;15.55;;
45206;SDS011;30950;53.086;21.576;2023-09-19T15:06:09;17.95;;;16.05;;
45206;SDS011;30950;53.086;21.576;2023-09-19T15:08:41;19.02;;;16.70;;
45206;SDS011;30950;53.086;21.576;2023-09-19T15:11:16;15.10;;;13.48;;
45206;SDS011;30950;53.086;21.576;2023-09-19T15:13:44;21.52;;;17.20;;
45206;SDS011;30950;53.086;21.576;2023-09-19T15:16:14;21.25;;;18.98;;
45206;SDS011;30950;53.086;21.576;2023-09-19T15:18:42;22.05;;;18.67;;
45206;SDS011;30950;53.086;21.576;2023-09-19T15:21:14;22.17;;;19.58;;